createdAt,value
2022-11-24T10:03:41.491Z,1203.00
2022-11-24T10:04:42.636Z,1221.00
2022-11-24T10:05:43.355Z,1237.00
2022-11-24T10:06:42.691Z,1237.00
2022-11-24T10:07:42.832Z,1231.00
2022-11-24T10:08:42.896Z,1222.00
2022-11-24T10:09:42.982Z,1219.00
2022-11-24T10:10:43.058Z,1215.00
2022-11-24T10:13:43.236Z,1296.00
2022-11-24T10:17:43.458Z,1118.00
2022-11-24T10:21:43.701Z,1094.00
2022-11-24T10:23:43.828Z,1085.00
2022-11-24T10:24:43.877Z,1079.00
2022-11-24T10:25:43.945Z,1075.00
2022-11-24T10:26:44.013Z,1062.00
2022-11-24T10:27:44.045Z,1056.00
2022-11-24T10:28:44.084Z,1050.00
2022-11-24T10:29:44.090Z,1049.00
2022-11-24T10:30:44.242Z,1043.00
2022-11-24T10:31:44.203Z,1037.00
2022-11-24T10:32:44.263Z,1030.00
2022-11-24T10:33:44.318Z,1023.00
2022-11-24T10:34:44.362Z,1014.00
2022-11-24T10:35:44.389Z,999.00
2022-11-24T10:36:44.432Z,990.00
2022-11-24T10:37:44.431Z,986.00
2022-11-24T10:38:44.460Z,982.00
2022-11-24T10:39:44.482Z,976.00
2022-11-24T10:40:59.988Z,965.00
2022-11-24T10:41:44.572Z,958.00
2022-11-24T10:42:44.568Z,953.00
2022-11-24T10:43:44.574Z,950.00
2022-11-24T10:44:44.624Z,948.00
2022-11-24T10:45:44.653Z,944.00
2022-11-24T10:46:44.823Z,940.00
2022-11-24T10:47:44.745Z,933.00
2022-11-24T10:48:44.745Z,931.00
2022-11-24T10:49:44.768Z,930.00
2022-11-24T10:50:44.841Z,926.00
2022-11-24T10:51:44.882Z,920.00
2022-11-24T10:52:44.935Z,912.00
2022-11-24T10:53:44.960Z,905.00
2022-11-24T10:54:45.007Z,903.00
2022-11-24T10:55:45.009Z,904.00
2022-11-24T10:56:45.035Z,901.00
2022-11-24T10:57:45.158Z,899.00
2022-11-24T10:58:45.101Z,904.00
2022-11-24T10:59:45.139Z,901.00
2022-11-24T11:00:45.165Z,900.00
2022-11-24T11:01:45.256Z,899.00
2022-11-24T11:02:45.346Z,896.00
2022-11-24T11:03:45.305Z,896.00
2022-11-24T11:04:45.362Z,891.00
2022-11-24T11:05:45.394Z,890.00
2022-11-24T11:06:45.438Z,887.00
2022-11-24T11:07:45.504Z,883.00
2022-11-24T11:08:45.482Z,878.00
2022-11-24T11:09:45.511Z,875.00
2022-11-24T11:10:45.544Z,873.00
2022-11-24T11:11:45.680Z,871.00
2022-11-24T11:12:45.892Z,867.00
2022-11-24T11:13:45.668Z,862.00
2022-11-24T11:14:45.768Z,859.00
2022-11-24T11:15:45.853Z,852.00
2022-11-24T11:16:45.824Z,851.00
2022-11-24T11:17:45.844Z,853.00
2022-11-24T11:18:45.876Z,849.00
2022-11-24T11:19:50.270Z,847.00
2022-11-24T11:20:45.964Z,842.00
2022-11-24T11:21:45.972Z,837.00
2022-11-24T11:22:46.024Z,833.00
2022-11-24T11:23:46.108Z,828.00
2022-11-24T11:24:46.069Z,825.00
2022-11-24T11:25:46.102Z,826.00
2022-11-24T11:26:46.119Z,827.00
2022-11-24T11:27:46.146Z,826.00
2022-11-24T11:28:46.181Z,823.00
2022-11-24T11:31:17.823Z,823.00
2022-11-24T11:34:02.877Z,821.00
2022-11-24T11:34:13.938Z,817.00
2022-11-24T11:34:30.140Z,813.00
2022-11-24T11:35:18.283Z,814.00
2022-11-24T11:36:18.298Z,809.00
2022-11-24T11:37:18.320Z,807.00
2022-11-24T11:38:18.339Z,805.00
2022-11-24T11:40:18.421Z,805.00
2022-11-24T11:43:18.506Z,799.00
2022-11-24T11:44:18.538Z,795.00
2022-11-24T11:45:18.634Z,792.00
2022-11-24T11:46:18.742Z,790.00
2022-11-24T11:47:18.623Z,785.00
2022-11-24T11:48:18.625Z,780.00
2022-11-24T11:49:18.632Z,774.00
2022-11-24T11:50:18.762Z,774.00
2022-11-24T11:51:23.682Z,771.00
2022-11-24T11:52:18.805Z,773.00
2022-11-24T11:53:18.795Z,771.00
2022-11-24T11:54:18.863Z,769.00
2022-11-24T11:55:18.846Z,767.00
2022-11-24T11:56:18.828Z,768.00
2022-11-24T11:57:18.872Z,766.00
2022-11-24T11:58:18.909Z,763.00
2022-11-24T11:59:18.897Z,761.00
2022-11-24T12:00:18.918Z,758.00
2022-11-24T12:01:18.930Z,757.00
2022-11-24T12:02:19.217Z,759.00
2022-11-24T12:03:19.122Z,753.00
2022-11-24T12:04:19.078Z,752.00
2022-11-24T12:05:18.982Z,753.00
2022-11-24T12:06:19.006Z,752.00
2022-11-24T12:07:19.055Z,749.00
2022-11-24T12:08:21.289Z,751.00
2022-11-24T12:09:20.791Z,749.00
2022-11-24T12:10:19.026Z,748.00
2022-11-24T12:11:19.035Z,747.00
2022-11-24T12:12:19.051Z,747.00
2022-11-24T12:13:19.064Z,747.00
2022-11-24T12:14:19.055Z,751.00
2022-11-24T12:15:19.061Z,751.00
2022-11-24T12:16:19.142Z,750.00
2022-11-24T12:17:19.146Z,749.00
2022-11-24T12:18:48.667Z,749.00
2022-11-24T12:19:19.227Z,746.00
2022-11-24T12:20:19.256Z,744.00
2022-11-24T12:21:24.800Z,741.00
2022-11-24T12:22:19.332Z,742.00
2022-11-24T12:23:19.348Z,738.00
2022-11-24T12:24:19.417Z,733.00
2022-11-24T12:25:19.384Z,733.00
2022-11-24T12:26:19.423Z,731.00
2022-11-24T12:27:22.830Z,732.00
2022-11-24T12:28:19.490Z,732.00
2022-11-24T12:29:19.508Z,730.00
2022-11-24T12:30:19.537Z,727.00
2022-11-24T12:31:19.700Z,725.00
2022-11-24T12:32:20.148Z,724.00
2022-11-24T12:33:19.682Z,726.00
2022-11-24T12:34:19.698Z,725.00
2022-11-24T12:35:19.713Z,722.00
2022-11-24T12:36:19.721Z,720.00
2022-11-24T12:37:19.746Z,720.00
2022-11-24T12:38:19.750Z,719.00
2022-11-24T12:39:19.765Z,717.00
2022-11-24T12:40:19.789Z,716.00
2022-11-24T12:42:19.850Z,717.00
2022-11-24T12:43:19.843Z,717.00
2022-11-24T12:44:19.866Z,720.00
2022-11-24T12:45:19.902Z,717.00
2022-11-24T12:46:19.955Z,712.00
2022-11-24T12:47:19.978Z,711.00
2022-11-24T12:48:19.999Z,708.00
2022-11-24T12:49:20.017Z,710.00
2022-11-24T12:50:20.044Z,708.00
2022-11-24T12:51:20.042Z,708.00
2022-11-24T12:52:20.082Z,706.00
2022-11-24T12:53:20.111Z,705.00
2022-11-24T12:54:20.147Z,705.00
2022-11-24T12:55:20.164Z,706.00
2022-11-24T12:56:20.187Z,706.00
2022-11-24T12:57:20.220Z,706.00
2022-11-24T12:58:20.236Z,704.00
2022-11-24T12:59:20.260Z,699.00
2022-11-24T13:00:20.273Z,702.00
2022-11-24T13:01:20.346Z,699.00
2022-11-24T13:02:20.405Z,700.00
2022-11-24T13:03:20.380Z,697.00
2022-11-24T13:04:20.391Z,692.00
2022-11-24T13:05:20.437Z,693.00
2022-11-24T13:06:20.485Z,694.00
2022-11-24T13:07:20.543Z,695.00
2022-11-24T13:08:20.518Z,697.00
2022-11-24T13:09:20.583Z,696.00
2022-11-24T13:10:34.623Z,695.00
2022-11-24T13:11:20.613Z,693.00
2022-11-24T13:12:20.624Z,693.00
2022-11-24T13:13:20.654Z,692.00
2022-11-24T13:14:20.750Z,692.00
2022-11-24T13:15:44.726Z,690.00
2022-11-24T13:16:35.763Z,691.00
2022-11-24T13:17:31.186Z,694.00
2022-11-24T13:18:20.914Z,693.00
2022-11-24T13:19:20.947Z,693.00
2022-11-24T13:20:20.942Z,691.00
2022-11-24T13:21:20.974Z,689.00
2022-11-24T13:22:21.010Z,691.00
2022-11-24T13:23:21.119Z,689.00
2022-11-24T13:24:21.117Z,691.00
2022-11-24T13:25:21.105Z,690.00
2022-11-24T13:27:21.183Z,691.00
2022-11-24T13:28:39.461Z,687.00
2022-11-24T13:29:25.399Z,684.00
2022-11-24T13:30:21.330Z,681.00
2022-11-24T13:31:21.534Z,679.00
2022-11-24T13:32:21.582Z,680.00
2022-11-24T13:33:25.721Z,678.00
2022-11-24T13:34:21.709Z,677.00
2022-11-24T13:36:21.623Z,675.00
2022-11-24T13:37:26.619Z,675.00
2022-11-24T13:38:21.679Z,677.00
2022-11-24T13:39:21.700Z,678.00
2022-11-24T13:40:21.681Z,678.00
2022-11-24T13:41:28.530Z,680.00
2022-11-24T13:42:42.270Z,678.00
2022-11-24T13:43:21.866Z,678.00
2022-11-24T13:44:21.847Z,678.00
2022-11-24T13:45:21.893Z,676.00
2022-11-24T13:46:21.927Z,679.00
2022-11-24T13:47:21.921Z,676.00
2022-11-24T13:48:22.515Z,675.00
2022-11-24T13:50:21.974Z,674.00
2022-11-24T13:51:22.037Z,673.00
2022-11-24T13:53:22.045Z,676.00
2022-11-24T13:54:22.058Z,675.00
2022-11-24T13:55:22.109Z,674.00
2022-11-24T13:57:22.174Z,671.00
2022-11-24T13:58:22.266Z,671.00
2022-11-24T13:59:22.274Z,669.00
2022-11-24T14:01:22.423Z,674.00
2022-11-24T14:02:22.403Z,676.00
2022-11-24T14:03:22.431Z,676.00
2022-11-24T14:04:30.576Z,677.00
2022-11-24T14:05:22.481Z,678.00
2022-11-24T14:06:22.488Z,677.00
2022-11-24T14:07:22.522Z,676.00
2022-11-24T14:08:22.536Z,673.00
2022-11-24T14:09:22.556Z,674.00
2022-11-24T14:10:22.553Z,671.00
2022-11-24T14:11:22.562Z,667.00
2022-11-24T14:12:22.545Z,668.00
2022-11-24T14:13:22.556Z,667.00
2022-11-24T14:14:22.576Z,667.00
2022-11-24T14:15:22.563Z,667.00
2022-11-24T14:16:22.629Z,665.00
2022-11-24T14:17:22.675Z,663.00
2022-11-24T14:18:22.687Z,664.00
2022-11-24T14:19:23.540Z,666.00
2022-11-24T14:22:22.737Z,665.00
2022-11-24T14:23:22.736Z,663.00
2022-11-24T14:26:22.784Z,663.00
2022-11-24T14:29:22.835Z,662.00
2022-11-24T14:30:22.918Z,663.00
2022-11-24T14:33:22.940Z,666.00
2022-11-24T14:36:23.057Z,663.00
2022-11-24T14:37:23.049Z,664.00
2022-11-24T14:40:23.163Z,662.00
2022-11-24T14:41:23.161Z,663.00
2022-11-24T14:44:23.203Z,662.00
2022-11-24T14:47:28.771Z,657.00
2022-11-24T14:48:23.274Z,656.00
2022-11-24T14:51:23.300Z,659.00
2022-11-24T14:55:23.476Z,663.00
2022-11-24T14:56:23.408Z,665.00
2022-11-24T14:57:23.417Z,669.00
2022-11-24T15:00:23.455Z,672.00
2022-11-24T15:03:23.456Z,664.00
2022-11-24T15:05:23.564Z,660.00
2022-11-24T15:06:23.628Z,657.00
2022-11-24T15:07:23.680Z,658.00
2022-11-24T15:09:23.696Z,655.00
2022-11-24T15:13:23.791Z,648.00
2022-11-24T15:16:23.946Z,644.00
2022-11-24T15:17:23.979Z,642.00
2022-11-24T15:20:24.049Z,640.00
2022-11-24T15:24:24.173Z,639.00
2022-11-24T15:28:24.242Z,633.00
2022-11-24T15:31:24.292Z,634.00
2022-11-24T15:35:24.302Z,637.00
2022-11-24T15:39:24.438Z,638.00
2022-11-24T15:44:24.593Z,639.00
2022-11-24T15:48:24.741Z,644.00
2022-11-24T15:52:24.964Z,861.00
2022-11-24T15:53:24.965Z,733.00
2022-11-24T15:54:24.964Z,714.00
2022-11-24T15:55:24.964Z,704.00
2022-11-24T15:56:24.974Z,701.00
2022-11-24T15:57:24.985Z,704.00
2022-11-24T15:58:25.010Z,706.00
2022-11-24T15:59:25.044Z,737.00
2022-11-24T16:00:25.070Z,886.00
2022-11-24T16:01:25.134Z,792.00
2022-11-24T16:02:25.216Z,792.00
2022-11-24T16:03:46.481Z,784.00
2022-11-24T16:04:25.232Z,780.00
2022-11-24T16:05:25.255Z,964.00
2022-11-24T16:06:25.697Z,841.00
2022-11-24T16:07:25.331Z,830.00
2022-11-24T16:08:25.313Z,829.00
2022-11-24T16:09:25.314Z,828.00
2022-11-24T16:10:25.326Z,828.00
2022-11-24T16:11:25.349Z,831.00
2022-11-24T16:12:25.339Z,875.00
2022-11-24T16:13:25.382Z,869.00
2022-11-24T16:14:25.491Z,880.00
2022-11-24T16:15:25.401Z,891.00
2022-11-24T16:16:25.541Z,884.00
2022-11-24T16:17:25.431Z,884.00
2022-11-24T16:18:25.402Z,885.00
2022-11-24T16:19:25.455Z,892.00
2022-11-24T16:20:25.507Z,904.00
2022-11-24T16:25:54.832Z,989.00
2022-11-24T16:26:55.920Z,1005.00
2022-11-24T16:27:56.060Z,999.00
2022-11-24T16:28:56.164Z,995.00
2022-11-24T16:29:56.268Z,989.00
2022-11-24T16:30:56.395Z,985.00
2022-11-24T16:31:56.693Z,991.00
2022-11-24T16:32:56.625Z,1009.00
2022-11-24T16:33:56.766Z,1025.00
2022-11-24T16:34:56.945Z,1035.00
2022-11-24T16:35:56.999Z,1042.00
2022-11-24T16:36:57.153Z,1051.00
2022-11-24T16:37:57.285Z,1064.00
2022-11-24T16:38:57.413Z,1081.00
2022-11-24T16:39:57.573Z,1088.00
2022-11-24T16:40:57.722Z,1096.00
2022-11-24T16:41:57.774Z,1112.00
2022-11-24T16:42:57.924Z,1122.00
2022-11-24T16:43:58.055Z,1128.00
2022-11-24T16:44:58.214Z,1159.00
2022-11-24T16:45:58.377Z,1162.00
2022-11-24T16:46:58.488Z,1197.00
2022-11-24T16:47:58.624Z,1204.00
2022-11-24T16:48:58.757Z,1207.00
2022-11-24T16:50:59.049Z,1218.00
2022-11-24T16:51:59.172Z,1227.00
2022-11-24T16:52:59.292Z,1238.00
2022-11-24T16:54:59.521Z,1242.00
2022-11-24T16:55:59.644Z,1244.00
2022-11-24T16:56:59.767Z,1255.00
2022-11-24T16:58:59.998Z,1257.00
2022-11-24T17:00:00.106Z,1266.00
2022-11-24T17:01:00.258Z,1316.00
2022-11-24T17:04:00.611Z,1344.00
2022-11-24T17:05:00.730Z,1334.00
2022-11-24T17:06:00.849Z,1332.00
2022-11-24T17:09:01.180Z,1337.00
2022-11-24T17:10:01.288Z,1346.00
2022-11-24T17:11:01.380Z,1350.00
2022-11-24T17:14:01.777Z,1401.00
2022-11-24T17:15:31.012Z,1429.00
2022-11-24T17:16:02.000Z,1420.00
2022-11-24T17:17:03.023Z,1418.00
2022-11-24T17:18:23.431Z,1551.00
2022-11-24T17:19:02.237Z,1519.00
2022-11-24T17:20:02.330Z,1518.00
2022-11-24T17:21:07.637Z,1487.00
2022-11-24T17:22:02.543Z,1468.00
2022-11-24T17:23:02.646Z,1460.00
2022-11-24T17:24:02.749Z,1460.00
2022-11-24T17:27:03.146Z,1461.00
2022-11-24T17:28:03.250Z,1461.00
2022-11-24T17:30:03.498Z,1470.00
2022-11-24T17:31:03.603Z,1475.00
2022-11-24T17:32:03.831Z,1482.00
2022-11-24T17:34:03.976Z,1496.00
2022-11-24T17:35:04.117Z,1505.00
2022-11-24T17:36:04.230Z,1509.00
2022-11-24T17:39:04.654Z,1528.00
2022-11-24T17:40:27.323Z,1523.00
2022-11-24T17:41:04.828Z,1532.00
2022-11-24T17:42:04.930Z,1542.00
2022-11-24T17:43:05.046Z,1555.00
2022-11-24T17:45:05.268Z,1566.00
2022-11-24T17:46:05.471Z,1579.00
2022-11-24T17:49:05.736Z,1597.00
2022-11-24T17:50:05.854Z,1608.00
2022-11-24T17:51:06.006Z,1611.00
2022-11-24T17:52:06.119Z,1629.00
2022-11-24T17:55:06.474Z,1645.00
2022-11-24T17:56:06.598Z,1643.00
2022-11-24T17:57:06.709Z,1644.00
2022-11-24T17:58:06.806Z,1645.00
2022-11-24T17:59:06.918Z,1649.00
2022-11-24T18:00:07.016Z,1663.00
2022-11-24T18:02:07.335Z,1675.00
2022-11-24T18:03:07.414Z,1677.00
2022-11-24T18:04:07.515Z,1680.00
2022-11-24T18:05:07.618Z,1679.00
2022-11-24T18:06:07.706Z,1683.00
2022-11-24T18:07:07.970Z,1678.00
2022-11-24T18:08:07.960Z,1679.00
2022-11-24T18:09:08.051Z,1678.00
2022-11-24T18:10:08.154Z,1680.00
2022-11-24T18:11:08.254Z,1685.00
2022-11-24T18:12:08.347Z,1688.00
2022-11-24T18:13:08.447Z,1689.00
2022-11-24T18:14:08.551Z,1690.00
2022-11-24T18:15:08.668Z,1615.00
2022-11-24T18:16:08.786Z,1581.00
2022-11-24T18:17:08.927Z,1435.00
2022-11-24T18:18:08.987Z,1344.00
2022-11-24T18:19:10.091Z,1303.00
2022-11-24T18:20:09.219Z,1274.00
2022-11-24T18:21:09.366Z,1273.00
2022-11-24T18:22:09.432Z,1270.00
2022-11-24T18:23:15.548Z,1275.00
2022-11-24T18:24:09.620Z,1275.00
2022-11-24T18:25:09.717Z,1274.00
2022-11-24T18:26:09.821Z,1275.00
2022-11-24T18:27:09.928Z,1272.00
2022-11-24T18:28:10.045Z,1270.00
2022-11-24T18:29:10.136Z,1269.00
2022-11-24T18:30:10.266Z,1265.00
2022-11-24T18:31:10.378Z,1261.00
2022-11-24T18:32:10.539Z,1258.00
2022-11-24T18:33:10.616Z,1255.00
2022-11-24T18:34:10.725Z,1254.00
2022-11-24T18:35:10.854Z,1253.00
2022-11-24T18:36:10.957Z,1261.00
2022-11-24T18:37:11.065Z,1257.00
2022-11-24T18:38:11.178Z,1249.00
2022-11-24T18:39:11.286Z,1246.00
2022-11-24T18:40:11.424Z,1234.00
2022-11-24T18:41:11.534Z,1222.00
2022-11-24T18:42:11.639Z,1205.00
2022-11-24T18:43:11.743Z,1197.00
2022-11-24T18:44:11.854Z,1186.00
2022-11-24T18:45:11.986Z,1174.00
2022-11-24T18:47:12.239Z,1150.00
2022-11-24T18:48:12.362Z,1146.00
2022-11-24T18:49:12.470Z,1141.00
2022-11-24T18:50:12.600Z,1135.00
2022-11-24T18:52:12.856Z,1131.00
2022-11-24T18:53:12.974Z,1129.00
2022-11-24T18:54:13.100Z,1126.00
2022-11-24T18:55:13.220Z,1123.00
2022-11-24T18:56:13.341Z,1121.00
2022-11-24T18:58:13.603Z,1117.00
2022-11-24T18:59:13.716Z,1115.00
2022-11-24T19:00:13.863Z,1114.00
2022-11-24T19:01:14.040Z,1109.00
2022-11-24T19:03:14.197Z,1103.00
2022-11-24T19:04:14.303Z,1099.00
2022-11-24T19:05:14.441Z,1097.00
2022-11-24T19:06:14.552Z,1096.00
2022-11-24T19:09:14.891Z,1092.00
2022-11-24T19:10:14.990Z,1094.00
2022-11-24T19:11:15.089Z,1093.00
2022-11-24T19:15:15.568Z,1082.00
2022-11-24T19:16:15.764Z,1079.00
2022-11-24T19:17:15.794Z,1076.00
2022-11-24T19:20:16.114Z,1073.00
2022-11-24T19:21:16.219Z,1075.00
2022-11-24T19:22:16.340Z,1073.00
2022-11-24T19:25:16.738Z,1066.00
2022-11-24T19:26:16.848Z,1063.00
2022-11-24T19:27:16.959Z,1063.00
2022-11-24T19:31:17.537Z,1052.00
2022-11-24T19:32:17.613Z,1051.00
2022-11-24T19:36:18.129Z,1041.00
2022-11-24T19:37:18.240Z,1040.00
2022-11-24T19:42:18.893Z,1023.00
2022-11-24T19:47:19.538Z,1018.00
2022-11-24T19:48:19.658Z,1017.00
2022-11-24T19:49:19.770Z,1016.00
2022-11-24T19:50:19.878Z,1015.00
2022-11-24T19:51:20.002Z,1015.00
2022-11-24T19:52:20.123Z,1009.00
2022-11-24T19:53:20.222Z,1009.00
2022-11-24T19:54:20.334Z,1007.00
2022-11-24T19:55:20.447Z,1002.00
2022-11-24T19:56:20.550Z,1002.00
2022-11-24T19:57:20.667Z,1000.00
2022-11-24T19:58:20.744Z,996.00
2022-11-24T19:59:20.814Z,995.00
2022-11-24T20:00:20.887Z,992.00
2022-11-24T20:01:21.118Z,994.00
2022-11-24T20:02:21.091Z,992.00
2022-11-24T20:03:21.167Z,987.00
2022-11-24T20:04:21.255Z,988.00
2022-11-24T20:05:21.352Z,988.00
2022-11-24T20:06:21.441Z,984.00
2022-11-24T20:07:21.566Z,981.00
2022-11-24T20:08:21.648Z,978.00
2022-11-24T20:09:21.733Z,977.00
2022-11-24T20:10:21.812Z,976.00
2022-11-24T20:11:21.901Z,975.00
2022-11-24T20:12:21.998Z,974.00
2022-11-24T20:13:22.110Z,973.00
2022-11-24T20:14:22.207Z,974.00
2022-11-24T20:16:22.435Z,973.00
2022-11-24T20:17:22.511Z,971.00
2022-11-24T20:18:22.614Z,970.00
2022-11-24T20:19:22.706Z,969.00
2022-11-24T20:21:22.894Z,963.00
2022-11-24T20:22:22.974Z,959.00
2022-11-24T20:23:23.059Z,959.00
2022-11-24T20:24:23.181Z,959.00
2022-11-24T20:25:23.283Z,961.00
2022-11-24T20:27:23.503Z,952.00
2022-11-24T20:28:23.575Z,949.00
2022-11-24T20:29:23.691Z,949.00
2022-11-24T20:30:23.774Z,947.00
2022-11-24T20:31:23.898Z,946.00
2022-11-24T20:33:24.076Z,941.00
2022-11-24T20:34:24.171Z,944.00
2022-11-24T20:35:24.271Z,946.00
2022-11-24T20:36:24.367Z,947.00
2022-11-24T20:39:24.717Z,941.00
2022-11-24T20:40:24.813Z,944.00
2022-11-24T20:41:24.919Z,942.00
2022-11-24T20:44:25.233Z,938.00
2022-11-24T20:45:25.381Z,939.00
2022-11-24T20:46:25.437Z,939.00
2022-11-24T20:47:25.572Z,937.00
2022-11-24T20:50:25.949Z,930.00
2022-11-24T20:51:26.039Z,928.00
2022-11-24T20:52:26.170Z,923.00
2022-11-24T20:56:26.643Z,918.00
2022-11-24T20:57:26.750Z,917.00
2022-11-24T20:58:26.862Z,917.00
2022-11-24T21:02:27.399Z,911.00
2022-11-24T21:03:27.487Z,908.00
2022-11-24T21:07:27.987Z,910.00
2022-11-24T21:08:28.061Z,910.00
2022-11-24T21:09:28.152Z,907.00
2022-11-24T21:10:28.241Z,905.00
2022-11-24T21:11:28.328Z,905.00
2022-11-24T21:12:28.420Z,903.00
2022-11-24T21:13:28.526Z,905.00
2022-11-24T21:14:32.510Z,904.00
2022-11-24T21:15:28.702Z,905.00
2022-11-24T21:16:28.844Z,901.00
2022-11-24T21:17:28.927Z,897.00
2022-11-24T21:18:29.037Z,892.00
2022-11-24T21:19:29.122Z,893.00
2022-11-24T21:20:29.217Z,892.00
2022-11-24T21:21:29.310Z,892.00
2022-11-24T21:22:29.403Z,890.00
2022-11-24T21:23:29.533Z,887.00
2022-11-24T21:24:29.627Z,888.00
2022-11-24T21:25:29.727Z,885.00
2022-11-24T21:26:29.804Z,885.00
2022-11-24T21:27:29.896Z,881.00
2022-11-24T21:28:29.983Z,881.00
2022-11-24T21:29:30.117Z,880.00
2022-11-24T21:30:30.200Z,877.00
2022-11-24T21:31:30.310Z,877.00
2022-11-24T21:32:30.374Z,875.00
2022-11-24T21:33:30.470Z,876.00
2022-11-24T21:34:30.575Z,875.00
2022-11-24T21:35:30.670Z,877.00
2022-11-24T21:36:30.757Z,875.00
2022-11-24T21:37:30.857Z,874.00
2022-11-24T21:38:30.945Z,872.00
2022-11-24T21:39:31.099Z,873.00
2022-11-24T21:40:31.125Z,868.00
2022-11-24T21:41:31.228Z,867.00
2022-11-24T21:42:31.327Z,866.00
2022-11-24T21:43:31.423Z,866.00
2022-11-24T21:44:31.531Z,865.00
2022-11-24T21:45:31.649Z,862.00
2022-11-24T21:46:31.737Z,858.00
2022-11-24T21:47:31.832Z,860.00
2022-11-24T21:48:31.928Z,858.00
2022-11-24T21:49:32.026Z,856.00
2022-11-24T21:50:32.108Z,857.00
2022-11-24T21:51:32.208Z,855.00
2022-11-24T21:52:32.300Z,856.00
2022-11-24T21:53:32.384Z,855.00
2022-11-24T21:54:32.851Z,856.00
2022-11-24T21:55:32.616Z,858.00
2022-11-24T21:56:32.704Z,857.00
2022-11-24T21:57:32.813Z,852.00
2022-11-24T21:58:32.898Z,849.00
2022-11-24T21:59:32.997Z,845.00
2022-11-24T22:00:33.084Z,843.00
2022-11-24T22:01:33.221Z,841.00
2022-11-24T22:02:33.395Z,842.00
2022-11-24T22:03:33.458Z,841.00
2022-11-24T22:04:33.934Z,839.00
2022-11-24T22:05:33.695Z,840.00
2022-11-24T22:06:33.790Z,842.00
2022-11-24T22:07:33.938Z,841.00
2022-11-24T22:08:33.994Z,840.00
2022-11-24T22:09:34.106Z,843.00
2022-11-24T22:10:34.214Z,841.00
2022-11-24T22:11:34.315Z,840.00
2022-11-24T22:12:34.415Z,839.00
2022-11-24T22:13:34.494Z,840.00
2022-11-24T22:14:40.076Z,842.00
2022-11-24T22:15:34.687Z,844.00
2022-11-24T22:16:34.859Z,845.00
2022-11-24T22:17:34.868Z,844.00
2022-11-24T22:18:34.955Z,844.00
2022-11-24T22:19:35.048Z,843.00
2022-11-24T22:20:35.144Z,846.00
2022-11-24T22:21:35.227Z,846.00
2022-11-24T22:22:35.309Z,842.00
2022-11-24T22:23:35.400Z,839.00
2022-11-24T22:24:35.493Z,835.00
2022-11-24T22:25:35.572Z,833.00
2022-11-24T22:26:35.648Z,830.00
2022-11-24T22:27:35.741Z,828.00
2022-11-24T22:28:35.825Z,826.00
2022-11-24T22:29:35.937Z,827.00
2022-11-24T22:30:36.021Z,830.00
2022-11-24T22:31:36.187Z,832.00
